createdAt,value
2019-02-27T00:01:05.289Z,15.80
2019-02-27T00:03:31.444Z,15.80
2019-02-27T00:05:57.616Z,15.80
2019-02-27T00:08:26.793Z,15.80
2019-02-27T00:10:49.978Z,15.90
2019-02-27T00:13:16.893Z,15.80
2019-02-27T00:15:43.060Z,15.80
2019-02-27T00:18:09.210Z,15.80
2019-02-27T00:20:37.075Z,15.80
2019-02-27T00:23:01.565Z,15.80
2019-02-27T00:25:27.725Z,15.80
2019-02-27T00:27:53.864Z,15.80
2019-02-27T00:30:20.029Z,15.80
2019-02-27T00:32:46.184Z,15.80
2019-02-27T00:35:12.361Z,15.80
2019-02-27T00:37:38.509Z,15.80
2019-02-27T00:40:05.604Z,15.80
2019-02-27T00:42:33.757Z,15.80
2019-02-27T00:44:57.844Z,15.80
2019-02-27T00:47:23.993Z,15.80
2019-02-27T00:49:50.149Z,15.70
2019-02-27T00:52:18.331Z,15.80
2019-02-27T00:54:42.472Z,15.80
2019-02-27T00:57:08.621Z,15.80
2019-02-27T00:59:34.769Z,15.80
2019-02-27T01:02:00.918Z,15.80
2019-02-27T01:04:27.075Z,15.80
2019-02-27T01:06:53.232Z,15.80
2019-02-27T01:09:20.141Z,15.70
2019-02-27T01:11:46.292Z,15.80
2019-02-27T01:14:12.453Z,15.80
2019-02-27T01:16:38.596Z,15.70
2019-02-27T01:19:05.315Z,15.70
2019-02-27T01:21:31.703Z,15.70
2019-02-27T01:23:57.860Z,15.70
2019-02-27T01:26:24.010Z,15.70
2019-02-27T01:28:50.165Z,15.70
2019-02-27T01:31:16.333Z,15.70
2019-02-27T01:33:43.244Z,15.70
2019-02-27T01:36:09.404Z,15.70
2019-02-27T01:38:37.639Z,15.70
2019-02-27T01:41:01.745Z,15.70
2019-02-27T01:43:27.893Z,15.70
2019-02-27T01:45:55.036Z,15.70
2019-02-27T01:48:21.026Z,15.70
2019-02-27T01:50:47.190Z,15.70
2019-02-27T01:53:13.356Z,15.70
2019-02-27T01:55:39.504Z,15.70
2019-02-27T01:58:09.165Z,15.70
2019-02-27T02:00:31.873Z,15.70
2019-02-27T02:02:58.052Z,15.70
2019-02-27T02:05:27.204Z,15.60
2019-02-27T02:07:50.415Z,15.70
2019-02-27T02:10:16.573Z,15.70
2019-02-27T02:12:42.742Z,15.70
2019-02-27T02:15:09.081Z,15.70
2019-02-27T02:17:35.257Z,15.60
2019-02-27T02:20:01.403Z,15.60
2019-02-27T02:22:27.561Z,15.70
2019-02-27T02:24:54.198Z,15.60
2019-02-27T02:27:19.896Z,15.60
2019-02-27T02:29:46.051Z,15.60
2019-02-27T02:32:16.818Z,15.60
2019-02-27T02:34:40.297Z,15.60
2019-02-27T02:37:04.605Z,15.60
2019-02-27T02:39:30.782Z,15.60
2019-02-27T02:41:57.090Z,15.60
2019-02-27T02:44:23.249Z,15.60
2019-02-27T02:46:49.396Z,15.60
2019-02-27T02:49:15.578Z,15.60
2019-02-27T02:51:41.733Z,15.60
2019-02-27T02:54:07.919Z,15.60
2019-02-27T02:56:34.068Z,15.60
2019-02-27T02:59:00.228Z,15.60
2019-02-27T03:01:26.386Z,15.60
2019-02-27T03:03:52.557Z,15.60
2019-02-27T03:06:18.704Z,15.60
2019-02-27T03:08:44.859Z,15.50
2019-02-27T03:11:11.029Z,15.50
2019-02-27T03:13:41.635Z,15.50
2019-02-27T03:16:04.781Z,15.60
2019-02-27T03:18:30.459Z,15.60
2019-02-27T03:20:55.803Z,15.60
2019-02-27T03:23:21.956Z,15.60
2019-02-27T03:25:48.122Z,15.60
2019-02-27T03:28:15.199Z,15.60
2019-02-27T03:30:41.347Z,15.60
2019-02-27T03:33:07.513Z,15.60
2019-02-27T03:35:33.689Z,15.50
2019-02-27T03:37:59.842Z,15.50
2019-02-27T03:40:26.012Z,15.60
2019-02-27T03:42:52.164Z,15.50
2019-02-27T03:45:18.329Z,15.50
2019-02-27T03:47:44.485Z,15.50
2019-02-27T03:50:14.662Z,15.50
2019-02-27T03:52:37.373Z,15.50
2019-02-27T03:55:03.021Z,15.50
2019-02-27T03:57:29.193Z,15.50
2019-02-27T03:59:55.340Z,15.50
2019-02-27T04:02:21.513Z,15.50
2019-02-27T04:04:47.711Z,15.50
2019-02-27T04:07:13.878Z,15.50
2019-02-27T04:09:40.028Z,15.50
2019-02-27T04:12:06.191Z,15.50
2019-02-27T04:14:32.355Z,15.50
2019-02-27T04:17:05.389Z,15.50
2019-02-27T04:19:24.724Z,15.50
2019-02-27T04:21:50.894Z,15.50
2019-02-27T04:24:22.238Z,15.40
2019-02-27T04:26:43.242Z,15.50
2019-02-27T04:29:09.406Z,15.50
2019-02-27T04:31:35.570Z,15.50
2019-02-27T04:34:01.726Z,15.40
2019-02-27T04:36:27.882Z,15.40
2019-02-27T04:38:54.051Z,15.40
2019-02-27T04:41:20.205Z,15.50
2019-02-27T04:43:46.381Z,15.40
2019-02-27T04:46:12.534Z,15.50
2019-02-27T04:48:38.699Z,15.50
2019-02-27T04:51:04.844Z,15.50
2019-02-27T04:53:31.990Z,15.50
2019-02-27T04:55:57.215Z,15.50
2019-02-27T04:58:23.396Z,15.50
2019-02-27T05:00:49.549Z,15.50
2019-02-27T05:03:15.737Z,15.50
2019-02-27T05:05:42.660Z,15.50
2019-02-27T05:08:08.815Z,15.50
2019-02-27T05:10:34.965Z,15.50
2019-02-27T05:13:01.118Z,15.50
2019-02-27T05:15:27.260Z,15.50
2019-02-27T05:17:55.610Z,15.50
2019-02-27T05:20:19.592Z,15.50
2019-02-27T05:22:45.760Z,15.50
2019-02-27T05:25:12.210Z,15.50
2019-02-27T05:27:38.110Z,15.50
2019-02-27T05:30:04.260Z,15.50
2019-02-27T05:32:30.410Z,15.50
2019-02-27T05:34:56.577Z,15.40
2019-02-27T05:37:22.733Z,15.50
2019-02-27T05:39:51.242Z,15.50
2019-02-27T05:42:15.073Z,15.50
2019-02-27T05:44:41.222Z,15.40
2019-02-27T05:47:08.608Z,15.40
2019-02-27T05:49:33.579Z,15.40
2019-02-27T05:51:59.739Z,15.40
2019-02-27T05:54:25.884Z,15.40
2019-02-27T05:56:52.043Z,15.40
2019-02-27T05:59:18.196Z,15.40
2019-02-27T06:01:44.346Z,15.50
2019-02-27T06:04:10.488Z,15.40
2019-02-27T06:06:36.661Z,15.40
2019-02-27T06:09:02.821Z,15.40
2019-02-27T06:11:29.539Z,15.40
2019-02-27T06:13:55.185Z,15.40
2019-02-27T06:16:21.360Z,15.40
2019-02-27T06:18:47.515Z,15.40
2019-02-27T06:21:16.382Z,15.40
2019-02-27T06:23:39.863Z,15.40
2019-02-27T06:26:06.030Z,15.40
2019-02-27T06:28:32.181Z,15.40
2019-02-27T06:30:58.347Z,15.40
2019-02-27T06:33:24.508Z,15.40
2019-02-27T06:35:50.655Z,15.40
2019-02-27T06:38:16.809Z,15.40
2019-02-27T06:40:42.986Z,15.40
2019-02-27T06:43:09.305Z,15.40
2019-02-27T06:45:35.467Z,15.40
2019-02-27T06:48:01.629Z,15.40
2019-02-27T06:50:27.792Z,15.40
2019-02-27T06:52:53.979Z,15.40
2019-02-27T06:55:20.254Z,15.40
2019-02-27T06:57:46.407Z,15.40
2019-02-27T07:00:12.569Z,15.40
2019-02-27T07:02:38.822Z,15.40
2019-02-27T07:05:04.983Z,15.40
2019-02-27T07:07:31.272Z,15.40
2019-02-27T07:09:57.324Z,15.40
2019-02-27T07:12:23.489Z,15.40
2019-02-27T07:14:49.642Z,15.40
2019-02-27T07:17:15.821Z,15.40
2019-02-27T07:19:41.978Z,15.30
2019-02-27T07:22:09.313Z,15.30
2019-02-27T07:24:34.330Z,15.30
2019-02-27T07:27:00.486Z,15.40
2019-02-27T07:29:27.484Z,15.40
2019-02-27T07:31:52.837Z,15.30
2019-02-27T07:34:18.993Z,15.40
2019-02-27T07:36:45.914Z,15.40
2019-02-27T07:39:12.061Z,15.30
2019-02-27T07:41:38.209Z,15.30
2019-02-27T07:44:04.380Z,15.40
2019-02-27T07:46:30.533Z,15.40
2019-02-27T07:48:57.456Z,15.40
2019-02-27T07:51:23.936Z,15.40
2019-02-27T07:53:51.476Z,15.40
2019-02-27T07:56:16.444Z,15.40
2019-02-27T07:58:42.619Z,15.40
2019-02-27T08:01:08.765Z,15.40
2019-02-27T08:03:34.943Z,15.40
2019-02-27T08:06:02.426Z,15.40
2019-02-27T08:08:28.087Z,15.40
2019-02-27T08:10:54.285Z,15.40
2019-02-27T08:13:20.441Z,15.40
2019-02-27T08:15:47.357Z,15.40
2019-02-27T08:18:13.611Z,15.30
2019-02-27T08:20:40.462Z,15.40
2019-02-27T08:23:06.976Z,15.40
2019-02-27T08:25:32.793Z,15.40
2019-02-27T08:27:58.952Z,15.40
2019-02-27T08:30:25.117Z,15.40
2019-02-27T08:32:51.282Z,15.40
2019-02-27T08:35:17.448Z,15.40
2019-02-27T08:37:43.714Z,15.50
2019-02-27T08:40:10.029Z,15.50
2019-02-27T08:42:37.376Z,15.50
2019-02-27T08:45:02.379Z,15.50
2019-02-27T08:47:28.533Z,15.50
2019-02-27T08:49:57.748Z,15.50
2019-02-27T08:52:20.889Z,15.50
2019-02-27T08:54:47.034Z,15.50
2019-02-27T08:57:13.181Z,15.50
2019-02-27T08:59:40.033Z,15.50
2019-02-27T09:02:05.530Z,15.50
2019-02-27T09:04:31.673Z,15.50
2019-02-27T09:07:02.176Z,15.50
2019-02-27T09:09:24.030Z,15.50
2019-02-27T09:11:50.185Z,15.50
2019-02-27T09:14:16.346Z,15.50
2019-02-27T09:16:42.494Z,15.50
2019-02-27T09:19:09.456Z,15.50
2019-02-27T09:21:34.836Z,15.50
2019-02-27T09:24:00.997Z,15.50
2019-02-27T09:26:27.156Z,15.50
2019-02-27T09:28:53.312Z,15.50
2019-02-27T09:31:19.486Z,15.50
2019-02-27T09:33:45.645Z,15.50
2019-02-27T09:36:11.820Z,15.60
2019-02-27T09:38:37.977Z,15.60
2019-02-27T09:41:04.159Z,15.60
2019-02-27T09:43:32.143Z,15.50
2019-02-27T09:45:56.498Z,15.50
2019-02-27T09:48:22.648Z,15.50
2019-02-27T09:50:49.174Z,15.60
2019-02-27T09:53:14.996Z,15.60
2019-02-27T09:55:41.140Z,15.60
2019-02-27T09:58:11.127Z,15.60
2019-02-27T10:00:33.496Z,15.60
2019-02-27T10:02:59.654Z,15.60
2019-02-27T10:05:25.824Z,15.60
2019-02-27T10:07:52.117Z,15.60
2019-02-27T10:10:18.168Z,15.60
2019-02-27T10:12:44.330Z,15.60
2019-02-27T10:15:10.487Z,15.60
2019-02-27T10:17:36.652Z,15.60
2019-02-27T10:20:03.575Z,15.60
2019-02-27T10:22:29.736Z,15.60
2019-02-27T10:24:55.890Z,15.60
2019-02-27T10:27:22.050Z,15.60
2019-02-27T10:29:48.541Z,15.60
2019-02-27T10:32:14.397Z,15.60
2019-02-27T10:34:40.552Z,15.60
2019-02-27T10:37:06.733Z,15.60
2019-02-27T10:39:36.898Z,15.60
2019-02-27T10:41:59.093Z,15.60
2019-02-27T10:44:25.248Z,15.60
2019-02-27T10:46:52.096Z,15.60
2019-02-27T10:49:21.420Z,15.60
2019-02-27T10:51:44.382Z,15.60
2019-02-27T10:54:10.008Z,15.60
2019-02-27T10:56:36.161Z,15.60
2019-02-27T10:59:02.384Z,15.60
2019-02-27T11:01:28.536Z,15.60
2019-02-27T11:03:54.718Z,15.60
2019-02-27T11:06:20.869Z,15.60
2019-02-27T11:08:47.243Z,15.60
2019-02-27T11:11:16.455Z,15.60
2019-02-27T11:13:39.625Z,15.60
2019-02-27T11:16:05.772Z,15.60
2019-02-27T11:18:31.935Z,15.60
2019-02-27T11:20:59.284Z,15.60
2019-02-27T11:23:25.036Z,15.60
2019-02-27T11:25:56.674Z,15.60
2019-02-27T11:28:17.375Z,15.60
2019-02-27T11:30:43.526Z,15.60
2019-02-27T11:33:09.675Z,15.60
2019-02-27T11:35:35.830Z,15.60
2019-02-27T11:38:01.993Z,15.60
2019-02-27T11:40:28.144Z,15.60
2019-02-27T11:42:54.296Z,15.60
2019-02-27T11:45:23.768Z,15.60
2019-02-27T11:47:48.115Z,15.60
2019-02-27T11:50:14.699Z,15.60
2019-02-27T11:52:48.284Z,15.60
2019-02-27T11:55:06.018Z,15.60
2019-02-27T11:57:32.173Z,15.60
2019-02-27T11:59:58.341Z,15.60
2019-02-27T12:02:29.020Z,15.60
2019-02-27T12:04:53.472Z,15.60
2019-02-27T12:07:17.416Z,15.60
2019-02-27T12:09:43.090Z,15.60
2019-02-27T12:12:10.483Z,15.60
2019-02-27T12:14:35.446Z,15.60
2019-02-27T12:17:01.603Z,15.60
2019-02-27T12:19:27.760Z,15.60
2019-02-27T12:21:53.927Z,15.60
2019-02-27T12:24:20.085Z,15.70
2019-02-27T12:26:46.229Z,15.70
2019-02-27T12:29:12.381Z,15.60
2019-02-27T12:31:38.537Z,15.60
2019-02-27T12:34:04.686Z,15.70
2019-02-27T12:36:30.836Z,15.70
2019-02-27T12:38:57.758Z,15.70
2019-02-27T12:41:23.931Z,15.70
2019-02-27T12:43:52.657Z,15.60
2019-02-27T12:46:16.293Z,15.60
2019-02-27T12:48:46.105Z,15.60
2019-02-27T12:51:08.660Z,15.60
2019-02-27T12:53:34.809Z,15.60
2019-02-27T12:56:00.976Z,15.70
2019-02-27T12:58:27.121Z,15.70
2019-02-27T13:00:53.295Z,15.70
2019-02-27T13:03:20.218Z,15.70
2019-02-27T13:05:46.364Z,15.70
2019-02-27T13:08:12.526Z,15.70
2019-02-27T13:10:38.749Z,15.70
2019-02-27T13:13:04.874Z,15.70
2019-02-27T13:15:31.025Z,15.70
2019-02-27T13:17:57.966Z,15.70
2019-02-27T13:20:23.374Z,15.70
2019-02-27T13:22:50.289Z,15.70
2019-02-27T13:25:16.441Z,15.70
2019-02-27T13:27:43.315Z,15.70
2019-02-27T13:30:09.329Z,15.70
2019-02-27T13:32:34.983Z,15.70
2019-02-27T13:35:01.145Z,15.70
2019-02-27T13:37:28.090Z,15.70
2019-02-27T13:39:54.245Z,15.70
2019-02-27T13:42:20.417Z,15.70
2019-02-27T13:44:46.572Z,15.70
2019-02-27T13:47:12.750Z,15.70
2019-02-27T13:49:38.897Z,15.70
2019-02-27T13:52:05.069Z,15.70
2019-02-27T13:54:34.825Z,15.70
2019-02-27T13:56:57.417Z,15.80
2019-02-27T13:59:23.575Z,15.70
2019-02-27T14:01:49.728Z,15.70
2019-02-27T14:04:15.881Z,15.80
2019-02-27T14:06:43.595Z,15.80
2019-02-27T14:09:08.678Z,15.80
2019-02-27T14:11:34.427Z,15.80
2019-02-27T14:14:00.629Z,15.80
2019-02-27T14:16:26.762Z,15.80
2019-02-27T14:18:54.156Z,15.80
2019-02-27T14:21:19.281Z,15.80
2019-02-27T14:23:46.804Z,15.80
2019-02-27T14:26:11.670Z,15.80
2019-02-27T14:28:37.849Z,15.80
2019-02-27T14:31:03.997Z,15.80
2019-02-27T14:33:30.165Z,15.80
2019-02-27T14:35:56.330Z,15.80
2019-02-27T14:38:22.935Z,15.80
2019-02-27T14:40:48.694Z,15.80
2019-02-27T14:43:14.976Z,15.80
2019-02-27T14:45:41.153Z,15.80
2019-02-27T14:48:07.308Z,15.80
2019-02-27T14:50:34.519Z,15.80
2019-02-27T14:52:59.651Z,15.80
2019-02-27T14:55:25.819Z,15.80
2019-02-27T14:57:51.972Z,15.80
2019-02-27T15:00:18.125Z,15.90
2019-02-27T15:02:44.273Z,15.90
2019-02-27T15:05:10.601Z,15.90
2019-02-27T15:07:36.753Z,15.90
2019-02-27T15:10:02.916Z,15.90
2019-02-27T15:12:29.064Z,15.90
2019-02-27T15:14:55.238Z,15.90
2019-02-27T15:17:21.385Z,15.90
2019-02-27T15:19:47.573Z,15.90
2019-02-27T15:22:13.725Z,15.90
2019-02-27T15:24:39.882Z,15.90
2019-02-27T15:27:06.038Z,15.90
2019-02-27T15:29:32.188Z,15.90
2019-02-27T15:31:58.342Z,15.90
2019-02-27T15:34:24.497Z,15.90
2019-02-27T15:36:50.649Z,15.90
2019-02-27T15:39:21.077Z,16.00
2019-02-27T15:41:43.588Z,16.00
2019-02-27T15:44:09.729Z,15.90
2019-02-27T15:46:36.067Z,15.90
2019-02-27T15:49:02.215Z,16.00
2019-02-27T15:51:32.081Z,16.00
2019-02-27T15:53:54.564Z,16.00
2019-02-27T15:56:21.489Z,15.90
2019-02-27T15:58:47.657Z,15.90
2019-02-27T16:01:13.977Z,16.00
2019-02-27T16:03:42.063Z,15.90
2019-02-27T16:06:06.693Z,15.90
2019-02-27T16:08:32.520Z,15.90
2019-02-27T16:10:58.672Z,15.90
2019-02-27T16:13:24.820Z,15.90
2019-02-27T16:15:50.971Z,15.90
2019-02-27T16:18:17.125Z,16.00
2019-02-27T16:20:43.277Z,16.00
2019-02-27T16:23:09.430Z,16.00
2019-02-27T16:25:35.663Z,16.00
2019-02-27T16:28:01.981Z,15.90
2019-02-27T16:30:32.426Z,16.00
2019-02-27T16:32:54.340Z,16.00
2019-02-27T16:35:20.493Z,16.00
2019-02-27T16:37:46.641Z,16.00
2019-02-27T16:40:17.595Z,16.00
2019-02-27T16:42:39.708Z,16.00
2019-02-27T16:45:05.180Z,16.00
2019-02-27T16:47:32.756Z,16.00
2019-02-27T16:49:57.555Z,16.00
2019-02-27T16:52:23.726Z,16.00
2019-02-27T16:54:50.726Z,16.00
2019-02-27T16:57:21.068Z,16.00
2019-02-27T16:59:45.440Z,16.00
2019-02-27T17:02:08.501Z,16.00
2019-02-27T17:04:34.897Z,16.00
2019-02-27T17:07:00.888Z,16.00
2019-02-27T17:09:27.053Z,16.00
2019-02-27T17:11:53.211Z,16.00
2019-02-27T17:14:21.160Z,16.00
2019-02-27T17:16:45.596Z,16.00
2019-02-27T17:19:11.757Z,16.00
2019-02-27T17:21:37.918Z,16.00
2019-02-27T17:24:04.068Z,16.00
2019-02-27T17:26:30.218Z,16.00
2019-02-27T17:28:56.374Z,16.00
2019-02-27T17:31:22.559Z,16.00
2019-02-27T17:33:48.729Z,16.00
2019-02-27T17:36:14.913Z,16.00
2019-02-27T17:38:41.071Z,16.00
2019-02-27T17:41:08.780Z,16.00
2019-02-27T17:43:33.428Z,16.10
2019-02-27T17:45:59.575Z,16.10
2019-02-27T17:48:25.751Z,16.00
2019-02-27T17:50:51.907Z,16.10
2019-02-27T17:53:20.414Z,16.10
2019-02-27T17:55:44.258Z,16.10
2019-02-27T17:58:10.420Z,16.10
2019-02-27T18:00:36.573Z,16.10
2019-02-27T18:03:05.030Z,16.10
2019-02-27T18:05:28.924Z,16.00
2019-02-27T18:07:55.083Z,16.10
2019-02-27T18:10:21.269Z,16.10
2019-02-27T18:12:47.597Z,16.10
2019-02-27T18:15:13.745Z,16.10
2019-02-27T18:17:39.932Z,16.10
2019-02-27T18:20:06.845Z,16.10
2019-02-27T18:22:33.006Z,16.10
2019-02-27T18:24:59.166Z,16.10
2019-02-27T18:27:25.538Z,16.10
2019-02-27T18:29:53.955Z,16.10
2019-02-27T18:32:20.145Z,16.10
2019-02-27T18:34:46.304Z,16.10
2019-02-27T18:37:14.495Z,16.10
2019-02-27T18:39:38.653Z,16.10
2019-02-27T18:42:04.815Z,16.10
2019-02-27T18:44:30.972Z,16.10
2019-02-27T18:46:59.749Z,16.10
2019-02-27T18:49:23.324Z,16.10
2019-02-27T18:51:49.472Z,16.10
2019-02-27T18:54:15.619Z,16.10
2019-02-27T18:56:41.777Z,16.10
2019-02-27T18:59:08.468Z,16.10
2019-02-27T19:01:34.631Z,16.10
2019-02-27T19:04:01.406Z,16.10
2019-02-27T19:06:26.993Z,16.10
2019-02-27T19:08:53.144Z,16.20
2019-02-27T19:11:19.295Z,16.10
2019-02-27T19:13:45.456Z,16.10
2019-02-27T19:16:11.619Z,16.20
2019-02-27T19:18:38.484Z,16.20
2019-02-27T19:21:04.208Z,16.10
2019-02-27T19:23:30.372Z,16.10
2019-02-27T19:25:56.529Z,16.10
2019-02-27T19:28:24.994Z,16.20
2019-02-27T19:30:48.876Z,16.20
2019-02-27T19:33:15.027Z,16.10
2019-02-27T19:35:41.181Z,16.10
2019-02-27T19:38:09.940Z,16.10
2019-02-27T19:40:33.536Z,16.20
2019-02-27T19:42:59.690Z,16.10
2019-02-27T19:45:25.855Z,16.10
2019-02-27T19:47:54.789Z,16.20
2019-02-27T19:50:18.201Z,16.20
2019-02-27T19:52:44.362Z,16.20
2019-02-27T19:55:10.524Z,16.20
2019-02-27T19:57:39.323Z,16.20
2019-02-27T20:00:02.883Z,16.20
2019-02-27T20:02:29.042Z,16.20
2019-02-27T20:04:55.194Z,16.20
2019-02-27T20:07:21.338Z,16.10
2019-02-27T20:09:47.491Z,16.20
2019-02-27T20:12:15.854Z,16.20
2019-02-27T20:14:39.838Z,16.10
2019-02-27T20:17:05.994Z,16.20
2019-02-27T20:19:32.150Z,16.20
2019-02-27T20:21:58.644Z,16.20
2019-02-27T20:24:24.496Z,16.20
2019-02-27T20:26:51.401Z,16.20
2019-02-27T20:29:16.852Z,16.20
2019-02-27T20:31:43.016Z,16.20
2019-02-27T20:34:11.583Z,16.20
2019-02-27T20:36:35.364Z,16.20
2019-02-27T20:39:03.267Z,16.20
2019-02-27T20:41:27.714Z,16.20
2019-02-27T20:43:54.634Z,16.20
2019-02-27T20:46:20.795Z,16.10
2019-02-27T20:48:46.961Z,16.20
2019-02-27T20:51:13.166Z,16.20
2019-02-27T20:53:39.317Z,16.10
2019-02-27T20:56:05.490Z,16.20
2019-02-27T20:58:31.660Z,16.20
2019-02-27T21:00:57.811Z,16.20
2019-02-27T21:03:26.874Z,16.20
2019-02-27T21:05:50.162Z,16.20
2019-02-27T21:08:16.321Z,16.10
2019-02-27T21:10:42.556Z,16.20
2019-02-27T21:13:08.708Z,16.20
2019-02-27T21:15:34.873Z,16.20
2019-02-27T21:18:01.778Z,16.20
2019-02-27T21:20:27.933Z,16.20
2019-02-27T21:22:54.095Z,16.20
2019-02-27T21:25:20.261Z,16.20
2019-02-27T21:27:46.457Z,16.20
2019-02-27T21:30:17.843Z,16.20
2019-02-27T21:32:38.830Z,16.20
2019-02-27T21:35:04.988Z,16.20
2019-02-27T21:37:31.135Z,16.20
2019-02-27T21:40:02.092Z,16.20
2019-02-27T21:42:23.480Z,16.20
2019-02-27T21:44:49.633Z,16.20
2019-02-27T21:47:18.367Z,16.20
2019-02-27T21:49:41.988Z,16.20
2019-02-27T21:52:09.276Z,16.20
2019-02-27T21:54:38.445Z,16.20
2019-02-27T21:57:00.537Z,16.20
2019-02-27T21:59:26.689Z,16.10
2019-02-27T22:01:53.338Z,16.20
2019-02-27T22:04:19.060Z,16.20
2019-02-27T22:06:45.217Z,16.20
2019-02-27T22:09:13.655Z,16.20
2019-02-27T22:11:38.364Z,16.20
2019-02-27T22:14:04.549Z,16.20
2019-02-27T22:16:30.775Z,16.20
2019-02-27T22:18:56.943Z,16.20
2019-02-27T22:21:23.094Z,16.10
2019-02-27T22:23:49.274Z,16.20
2019-02-27T22:26:15.441Z,16.10
2019-02-27T22:28:46.540Z,16.10
2019-02-27T22:31:12.698Z,16.10
2019-02-27T22:33:38.857Z,16.10
2019-02-27T22:36:05.004Z,16.10
2019-02-27T22:38:31.159Z,16.10
2019-02-27T22:40:57.308Z,16.10
2019-02-27T22:43:23.478Z,16.10
2019-02-27T22:45:49.640Z,16.10
2019-02-27T22:48:15.808Z,16.10
2019-02-27T22:50:41.997Z,16.10
2019-02-27T22:53:08.145Z,16.10
2019-02-27T22:55:36.224Z,16.10
2019-02-27T22:58:00.696Z,16.10
2019-02-27T23:00:26.867Z,16.10
2019-02-27T23:02:53.529Z,16.10
2019-02-27T23:05:19.228Z,16.10
2019-02-27T23:07:45.380Z,16.10
2019-02-27T23:10:11.611Z,16.10
2019-02-27T23:12:39.484Z,16.10
2019-02-27T23:15:04.736Z,16.10
2019-02-27T23:17:31.678Z,16.10
2019-02-27T23:19:57.095Z,16.10
2019-02-27T23:22:23.251Z,16.10
2019-02-27T23:24:49.421Z,16.10
2019-02-27T23:27:15.571Z,16.10
2019-02-27T23:29:41.724Z,16.10
2019-02-27T23:32:07.889Z,16.10
2019-02-27T23:34:34.054Z,16.10
2019-02-27T23:37:00.202Z,16.10
2019-02-27T23:39:26.352Z,16.10
2019-02-27T23:41:54.007Z,16.10
2019-02-27T23:44:19.484Z,16.10
2019-02-27T23:46:49.588Z,16.10
2019-02-27T23:49:11.832Z,16.10
2019-02-27T23:51:38.014Z,16.10
2019-02-27T23:54:04.180Z,16.10
2019-02-27T23:56:32.257Z,16.10
2019-02-27T23:59:02.306Z,16.10
